aviador You're here:

KVSF Decoded Metar

SPRINGFIELD in VT, USA
Report Time2017-05-26 10:54:00
UTC Time2017-05-26 11:17:01
Flight Rules mvfr MVFR
WindCalm
Visibility9999 m
Phenomena:Light Rain
Clouds:Overcast 020 Hf
Expected CloudBase > 400 ft AGL from Temp-Dew spread
Ceiling2,000 ft
Temp10°C (ISA -4)
Dew Point09°C (94% RH)
AAT9.8°C
QNH1000 hPa
Density Alt715 ft
Elevation574 ft
Report Wrong Elevation
Raw Report
KVSF 261054Z AUTO 00000KT 10SM -RA OVC020 10/09 A2953 RMK AO2
SLP001 P0002 T01000089=

Extra information for KVSF:More info

Metar Taf Metar & Taf Last 4 Metars F.Rules Stats Wind Profile Meteogram Temp Stats Airport Information Weather charts Add Link Nearby VenuesMetar ALERT Operation Metar Decoded Social comments

AIRNAV info for KVSF